createdAt,value
2023-05-05T00:00:54.207Z,0.00
2023-05-05T00:01:54.287Z,0.00
2023-05-05T00:02:54.288Z,0.00
2023-05-05T00:03:54.215Z,0.00
2023-05-05T00:04:57.192Z,0.00
2023-05-05T00:05:54.186Z,0.00
2023-05-05T00:06:54.165Z,0.00
2023-05-05T00:07:54.142Z,0.00
2023-05-05T00:08:54.124Z,0.00
2023-05-05T00:09:54.173Z,0.00
2023-05-05T00:10:54.111Z,0.00
2023-05-05T00:11:54.128Z,0.00
2023-05-05T00:12:54.137Z,0.00
2023-05-05T00:13:54.071Z,0.00
2023-05-05T00:14:54.057Z,0.00
2023-05-05T00:15:54.068Z,0.00
2023-05-05T00:16:54.050Z,0.00
2023-05-05T00:17:54.077Z,0.00
2023-05-05T00:18:54.017Z,0.00
2023-05-05T00:19:56.994Z,0.00
2023-05-05T00:20:54.000Z,0.00
2023-05-05T00:21:54.011Z,0.00
2023-05-05T00:22:54.026Z,0.00
2023-05-05T00:23:53.988Z,0.00
2023-05-05T00:24:54.169Z,0.00
2023-05-05T00:25:55.020Z,0.00
2023-05-05T00:26:54.153Z,0.00
2023-05-05T00:27:54.892Z,0.00
2023-05-05T00:28:54.141Z,0.00
2023-05-05T00:29:54.900Z,0.00
2023-05-05T00:30:54.088Z,0.00
2023-05-05T00:31:53.906Z,0.00
2023-05-05T00:32:53.925Z,0.00
2023-05-05T00:33:53.859Z,0.00
2023-05-05T00:34:56.844Z,0.00
2023-05-05T00:35:53.848Z,0.00
2023-05-05T00:36:53.868Z,0.00
2023-05-05T00:37:53.842Z,0.00
2023-05-05T00:38:53.804Z,0.00
2023-05-05T00:39:53.837Z,0.00
2023-05-05T00:40:53.788Z,0.00
2023-05-05T00:41:53.813Z,0.00
2023-05-05T00:42:53.772Z,0.00
2023-05-05T00:43:53.768Z,0.00
2023-05-05T00:44:53.750Z,0.00
2023-05-05T00:45:53.766Z,0.00
2023-05-05T00:46:53.728Z,0.00
2023-05-05T00:47:53.752Z,0.00
2023-05-05T00:48:53.803Z,0.00
2023-05-05T00:49:56.694Z,0.00
2023-05-05T00:50:53.711Z,0.00
2023-05-05T00:51:53.704Z,0.00
2023-05-05T00:52:53.678Z,0.00
2023-05-05T00:53:53.674Z,0.00
2023-05-05T00:54:53.661Z,0.00
2023-05-05T00:55:53.646Z,0.00
2023-05-05T00:56:53.626Z,0.00
2023-05-05T00:57:53.607Z,0.00
2023-05-05T00:58:53.678Z,0.00
2023-05-05T00:59:53.609Z,0.00
2023-05-05T01:00:53.582Z,0.00
2023-05-05T01:01:53.607Z,0.00
2023-05-05T01:02:53.676Z,0.00
2023-05-05T01:03:53.705Z,0.00
2023-05-05T01:04:56.557Z,0.00
2023-05-05T01:05:53.554Z,0.00
2023-05-05T01:07:53.501Z,0.00
2023-05-05T01:08:53.489Z,0.00
2023-05-05T01:10:01.009Z,0.00
2023-05-05T01:10:54.477Z,0.00
2023-05-05T01:11:53.483Z,0.00
2023-05-05T01:12:53.468Z,0.00
2023-05-05T01:13:53.436Z,0.00
2023-05-05T01:14:53.534Z,0.00
2023-05-05T01:15:53.552Z,0.00
2023-05-05T01:16:53.431Z,0.00
2023-05-05T01:17:53.415Z,0.00
2023-05-05T01:18:53.399Z,0.00
2023-05-05T01:19:56.416Z,0.00
2023-05-05T01:20:53.356Z,0.00
2023-05-05T01:21:53.351Z,0.00
2023-05-05T01:22:53.397Z,0.00
2023-05-05T01:23:53.331Z,0.00
2023-05-05T01:24:53.317Z,0.00
2023-05-05T01:25:53.311Z,0.00
2023-05-05T01:26:53.293Z,0.00
2023-05-05T01:27:53.294Z,0.00
2023-05-05T01:28:53.302Z,0.00
2023-05-05T01:29:53.350Z,0.00
2023-05-05T01:30:53.278Z,0.00
2023-05-05T01:31:53.333Z,0.00
2023-05-05T01:32:53.276Z,0.00
2023-05-05T01:33:53.243Z,0.00
2023-05-05T01:34:56.247Z,0.00
2023-05-05T01:35:53.206Z,0.00
2023-05-05T01:36:53.190Z,0.00
2023-05-05T01:37:53.170Z,0.00
2023-05-05T01:38:53.196Z,0.00
2023-05-05T01:39:53.140Z,0.00
2023-05-05T01:40:53.145Z,0.00
2023-05-05T01:41:53.163Z,0.00
2023-05-05T01:42:53.127Z,0.00
2023-05-05T01:43:53.141Z,0.00
2023-05-05T01:45:53.165Z,0.00
2023-05-05T01:46:53.070Z,0.00
2023-05-05T01:47:53.137Z,0.00
2023-05-05T01:48:53.060Z,0.00
2023-05-05T01:49:56.070Z,0.00
2023-05-05T01:50:53.091Z,0.00
2023-05-05T01:51:53.047Z,0.00
2023-05-05T01:52:53.047Z,0.00
2023-05-05T01:53:53.025Z,0.00
2023-05-05T01:54:53.007Z,0.00
2023-05-05T01:55:52.977Z,0.00
2023-05-05T01:56:52.962Z,0.00
2023-05-05T01:57:52.975Z,0.00
2023-05-05T01:58:52.966Z,0.00
2023-05-05T01:59:52.955Z,0.00
2023-05-05T02:00:52.919Z,0.00
2023-05-05T02:01:52.952Z,0.00
2023-05-05T02:02:52.961Z,0.00
2023-05-05T02:03:52.883Z,0.00
2023-05-05T02:04:55.934Z,0.00
2023-05-05T02:05:52.899Z,0.00
2023-05-05T02:06:52.855Z,0.00
2023-05-05T02:07:52.845Z,0.00
2023-05-05T02:08:52.831Z,0.00
2023-05-05T02:10:52.835Z,0.00
2023-05-05T02:11:52.817Z,0.00
2023-05-05T02:12:53.036Z,0.00
2023-05-05T02:13:52.833Z,0.00
2023-05-05T02:14:52.765Z,0.00
2023-05-05T02:15:52.804Z,0.00
2023-05-05T02:16:52.773Z,0.00
2023-05-05T02:17:52.781Z,0.00
2023-05-05T02:18:52.725Z,0.00
2023-05-05T02:19:55.751Z,0.00
2023-05-05T02:20:52.718Z,0.00
2023-05-05T02:21:52.721Z,0.00
2023-05-05T02:22:52.709Z,0.00
2023-05-05T02:23:52.703Z,0.00
2023-05-05T02:24:52.661Z,0.00
2023-05-05T02:25:52.660Z,0.00
2023-05-05T02:26:52.640Z,0.00
2023-05-05T02:27:52.668Z,0.00
2023-05-05T02:28:52.626Z,0.00
2023-05-05T02:29:52.623Z,0.00
2023-05-05T02:30:52.596Z,0.00
2023-05-05T02:31:52.709Z,0.00
2023-05-05T02:32:52.636Z,0.00
2023-05-05T02:33:52.594Z,0.00
2023-05-05T02:34:55.704Z,0.00
2023-05-05T02:35:52.573Z,0.00
2023-05-05T02:36:52.567Z,0.00
2023-05-05T02:37:52.593Z,0.00
2023-05-05T02:38:52.508Z,0.00
2023-05-05T02:39:52.499Z,0.00
2023-05-05T02:40:52.497Z,0.00
2023-05-05T02:41:52.514Z,0.00
2023-05-05T02:42:52.491Z,0.00
2023-05-05T02:43:52.463Z,0.00
2023-05-05T02:44:52.439Z,0.00
2023-05-05T02:45:52.494Z,0.00
2023-05-05T02:46:52.465Z,0.00
2023-05-05T02:47:52.476Z,0.00
2023-05-05T02:48:52.403Z,0.00
2023-05-05T02:49:55.423Z,0.00
2023-05-05T02:50:52.411Z,0.00
2023-05-05T02:51:52.375Z,0.00
2023-05-05T02:52:52.368Z,0.00
2023-05-05T02:53:52.374Z,0.00
2023-05-05T02:54:52.365Z,0.00
2023-05-05T02:55:52.327Z,0.00
2023-05-05T02:56:52.364Z,0.00
2023-05-05T02:57:52.294Z,0.00
2023-05-05T02:58:52.329Z,0.00
2023-05-05T02:59:52.309Z,0.00
2023-05-05T03:00:52.279Z,0.00
2023-05-05T03:01:52.352Z,0.00
2023-05-05T03:02:52.303Z,0.00
2023-05-05T03:03:52.383Z,0.00
2023-05-05T03:04:55.218Z,0.00
2023-05-05T03:05:52.220Z,0.00
2023-05-05T03:06:52.206Z,0.00
2023-05-05T03:07:52.227Z,0.00
2023-05-05T03:08:52.223Z,0.00
2023-05-05T03:09:52.202Z,0.00
2023-05-05T03:10:52.167Z,0.00
2023-05-05T03:11:52.199Z,0.00
2023-05-05T03:12:52.220Z,0.00
2023-05-05T03:13:52.126Z,0.00
2023-05-05T03:14:52.115Z,0.00
2023-05-05T03:15:52.115Z,0.00
2023-05-05T03:16:52.091Z,0.00
2023-05-05T03:17:52.143Z,0.00
2023-05-05T03:18:52.143Z,0.00
2023-05-05T03:19:55.084Z,0.00
2023-05-05T03:20:52.061Z,0.00
2023-05-05T03:21:52.041Z,0.00
2023-05-05T03:22:52.065Z,0.00
2023-05-05T03:23:52.025Z,0.00
2023-05-05T03:24:52.033Z,0.00
2023-05-05T03:25:52.030Z,0.00
2023-05-05T03:26:51.993Z,0.00
2023-05-05T03:27:52.003Z,0.00
2023-05-05T03:28:52.008Z,0.00
2023-05-05T03:29:52.022Z,0.00
2023-05-05T03:30:51.921Z,0.00
2023-05-05T03:31:51.974Z,0.00
2023-05-05T03:32:52.022Z,0.00
2023-05-05T03:33:51.950Z,0.00
2023-05-05T03:34:54.915Z,0.00
2023-05-05T03:35:51.884Z,0.00
2023-05-05T03:36:51.863Z,0.00
2023-05-05T03:37:51.851Z,0.00
2023-05-05T03:38:51.832Z,0.00
2023-05-05T03:39:51.829Z,0.00
2023-05-05T03:40:51.785Z,0.00
2023-05-05T03:41:51.785Z,0.00
2023-05-05T03:42:51.781Z,0.00
2023-05-05T03:43:51.793Z,0.00
2023-05-05T03:44:51.745Z,0.00
2023-05-05T03:45:51.821Z,0.00
2023-05-05T03:46:51.895Z,0.00
2023-05-05T03:47:51.724Z,0.00
2023-05-05T03:48:51.774Z,0.00
2023-05-05T03:49:54.688Z,0.00
2023-05-05T03:50:51.694Z,0.00
2023-05-05T03:51:51.696Z,0.00
2023-05-05T03:52:51.684Z,0.00
2023-05-05T03:53:51.692Z,0.00
2023-05-05T03:54:51.686Z,0.00
2023-05-05T03:55:51.653Z,0.00
2023-05-05T03:56:51.617Z,5.62
2023-05-05T03:57:51.643Z,5.62
2023-05-05T03:58:51.588Z,5.62
2023-05-05T03:59:51.613Z,5.62
2023-05-05T04:00:51.628Z,5.62
2023-05-05T04:01:51.602Z,5.62
2023-05-05T04:02:51.647Z,5.62
2023-05-05T04:03:51.606Z,5.62
2023-05-05T04:04:54.605Z,11.25
2023-05-05T04:05:51.534Z,11.25
2023-05-05T04:06:51.698Z,11.25
2023-05-05T04:07:51.532Z,11.25
2023-05-05T04:08:51.578Z,11.25
2023-05-05T04:09:51.509Z,16.88
2023-05-05T04:10:51.468Z,16.88
2023-05-05T04:11:51.456Z,16.88
2023-05-05T04:12:51.551Z,22.50
2023-05-05T04:13:51.448Z,22.50
2023-05-05T04:14:51.435Z,22.50
2023-05-05T04:15:51.490Z,28.12
2023-05-05T04:16:51.417Z,28.12
2023-05-05T04:17:51.455Z,33.75
2023-05-05T04:18:51.439Z,33.75
2023-05-05T04:19:54.456Z,39.38
2023-05-05T04:20:51.410Z,39.38
2023-05-05T04:21:51.388Z,45.00
2023-05-05T04:22:52.721Z,45.00
2023-05-05T04:23:51.378Z,50.62
2023-05-05T04:24:51.360Z,50.62
2023-05-05T04:25:51.392Z,56.25
2023-05-05T04:26:51.338Z,56.25
2023-05-05T04:27:51.328Z,61.88
2023-05-05T04:28:51.316Z,61.88
2023-05-05T04:29:51.309Z,61.88
2023-05-05T04:30:51.390Z,67.50
2023-05-05T04:31:51.334Z,67.50
2023-05-05T04:32:51.275Z,73.12
2023-05-05T04:33:51.254Z,78.75
2023-05-05T04:34:54.226Z,84.38
2023-05-05T04:35:51.230Z,90.00
2023-05-05T04:36:51.228Z,90.00
2023-05-05T04:37:51.219Z,95.62
2023-05-05T04:38:51.252Z,95.62
2023-05-05T04:39:51.193Z,101.25
2023-05-05T04:40:51.158Z,101.25
2023-05-05T04:41:51.154Z,106.88
2023-05-05T04:42:51.158Z,112.50
2023-05-05T04:43:51.136Z,112.50
2023-05-05T04:44:51.147Z,118.12
2023-05-05T04:45:51.134Z,123.75
2023-05-05T04:46:51.142Z,129.38
2023-05-05T04:47:51.162Z,140.62
2023-05-05T04:48:51.150Z,146.25
2023-05-05T04:49:54.100Z,151.88
2023-05-05T04:50:51.090Z,157.50
2023-05-05T04:51:51.075Z,163.12
2023-05-05T04:52:52.670Z,168.75
2023-05-05T04:53:51.024Z,168.75
2023-05-05T04:54:51.060Z,168.75
2023-05-05T04:55:51.036Z,168.75
2023-05-05T04:56:50.991Z,163.12
2023-05-05T04:57:51.070Z,163.12
2023-05-05T04:58:50.998Z,163.12
2023-05-05T04:59:51.035Z,157.50
2023-05-05T05:01:50.985Z,157.50
2023-05-05T05:02:51.009Z,157.50
2023-05-05T05:03:51.043Z,157.50
2023-05-05T05:04:53.913Z,157.50
2023-05-05T05:05:50.937Z,163.12
2023-05-05T05:06:50.897Z,168.75
2023-05-05T05:07:50.906Z,174.38
2023-05-05T05:08:50.906Z,174.38
2023-05-05T05:09:50.882Z,174.38
2023-05-05T05:10:50.842Z,168.75
2023-05-05T05:11:50.831Z,168.75
2023-05-05T05:12:50.915Z,174.38
2023-05-05T05:13:50.814Z,174.38
2023-05-05T05:14:50.801Z,174.38
2023-05-05T05:15:50.843Z,174.38
2023-05-05T05:16:50.840Z,174.38
2023-05-05T05:17:50.814Z,180.00
2023-05-05T05:18:50.753Z,185.62
2023-05-05T05:19:53.752Z,185.62
2023-05-05T05:20:51.006Z,191.25
2023-05-05T05:21:50.865Z,196.88
2023-05-05T05:22:50.716Z,196.88
2023-05-05T05:23:50.703Z,202.50
2023-05-05T05:24:50.695Z,213.75
2023-05-05T05:25:50.725Z,219.38
2023-05-05T05:26:50.702Z,225.00
2023-05-05T05:28:05.782Z,230.62
2023-05-05T05:28:51.702Z,230.62
2023-05-05T05:29:50.635Z,236.25
2023-05-05T05:30:50.639Z,241.88
2023-05-05T05:31:50.670Z,247.50
2023-05-05T05:32:50.758Z,253.12
2023-05-05T05:33:50.604Z,258.75
2023-05-05T05:34:53.608Z,258.75
2023-05-05T05:35:50.612Z,264.38
2023-05-05T05:36:50.594Z,264.38
2023-05-05T05:37:50.559Z,264.38
2023-05-05T05:38:50.692Z,270.00
2023-05-05T05:39:50.533Z,275.62
2023-05-05T05:40:50.517Z,281.25
2023-05-05T05:41:50.522Z,281.25
2023-05-05T05:42:50.550Z,286.88
2023-05-05T05:43:50.503Z,292.50
2023-05-05T05:44:50.528Z,292.50
2023-05-05T05:46:50.481Z,292.50
2023-05-05T05:47:50.523Z,292.50
2023-05-05T05:48:50.468Z,298.12
2023-05-05T05:49:53.447Z,303.75
2023-05-05T05:51:50.432Z,315.00
2023-05-05T05:52:50.420Z,320.62
2023-05-05T05:53:50.378Z,326.25
2023-05-05T05:54:50.377Z,337.50
2023-05-05T05:55:50.388Z,348.75
2023-05-05T05:56:50.392Z,354.38
2023-05-05T05:57:50.351Z,360.00
2023-05-05T05:59:50.387Z,365.62
2023-05-05T06:00:50.299Z,360.00
2023-05-05T06:01:50.293Z,371.25
2023-05-05T06:02:50.328Z,376.88
2023-05-05T06:03:50.360Z,376.88
2023-05-05T06:04:53.256Z,376.88
2023-05-05T06:05:50.285Z,382.50
2023-05-05T06:06:50.250Z,376.88
2023-05-05T06:07:50.243Z,382.50
2023-05-05T06:08:50.280Z,382.50
2023-05-05T06:09:50.230Z,376.88
2023-05-05T06:10:50.227Z,376.88
2023-05-05T06:11:50.185Z,382.50
2023-05-05T06:12:50.219Z,382.50
2023-05-05T06:13:50.192Z,388.12
2023-05-05T06:14:50.166Z,393.75
2023-05-05T06:16:50.121Z,410.62
2023-05-05T06:17:50.169Z,416.25
2023-05-05T06:18:50.109Z,421.88
2023-05-05T06:19:54.534Z,427.50
2023-05-05T06:20:50.115Z,433.12
2023-05-05T06:22:50.066Z,450.00
2023-05-05T06:24:50.070Z,466.88
2023-05-05T06:25:50.081Z,472.50
2023-05-05T06:26:50.020Z,478.12
2023-05-05T06:27:50.022Z,483.75
2023-05-05T06:28:50.025Z,489.38
2023-05-05T06:29:50.046Z,500.62
2023-05-05T06:30:49.979Z,511.88
2023-05-05T06:31:50.084Z,517.50
2023-05-05T06:32:50.012Z,523.12
2023-05-05T06:33:49.948Z,528.75
2023-05-05T06:34:52.941Z,534.38
2023-05-05T06:35:49.933Z,534.38
2023-05-05T06:36:50.192Z,534.38
2023-05-05T06:37:49.931Z,534.38
2023-05-05T06:38:49.932Z,540.00
2023-05-05T06:39:49.915Z,624.38
2023-05-05T06:40:49.876Z,804.38
2023-05-05T06:42:49.889Z,866.25
2023-05-05T06:44:49.831Z,815.62
2023-05-05T06:45:49.853Z,849.38
2023-05-05T06:47:49.894Z,888.75
2023-05-05T06:49:52.803Z,911.25
2023-05-05T06:50:49.794Z,916.88
2023-05-05T06:51:49.779Z,883.12
2023-05-05T06:52:49.751Z,832.50
2023-05-05T06:53:49.764Z,855.00
2023-05-05T06:54:49.716Z,860.62
2023-05-05T06:55:49.728Z,849.38
2023-05-05T06:56:49.733Z,821.25
2023-05-05T06:57:49.693Z,810.00
2023-05-05T06:58:49.708Z,911.25
2023-05-05T06:59:49.672Z,911.25
2023-05-05T07:00:49.709Z,945.00
2023-05-05T07:02:49.726Z,883.12
2023-05-05T07:03:49.678Z,826.88
2023-05-05T07:05:49.652Z,843.75
2023-05-05T07:06:49.633Z,1001.25
2023-05-05T07:07:49.594Z,1119.38
2023-05-05T07:08:49.625Z,1108.12
2023-05-05T07:09:49.561Z,1136.25
2023-05-05T07:10:49.548Z,1147.50
2023-05-05T07:11:49.770Z,1113.75
2023-05-05T07:12:49.623Z,1108.12
2023-05-05T07:13:49.590Z,1130.62
2023-05-05T07:15:49.501Z,1164.38
2023-05-05T07:16:49.611Z,1215.00
2023-05-05T07:18:49.468Z,1310.62
2023-05-05T07:20:49.541Z,1192.50
2023-05-05T07:22:49.424Z,1316.25
2023-05-05T07:23:49.412Z,1310.62
2023-05-05T07:25:49.424Z,2362.50
2023-05-05T07:26:49.383Z,1755.00
2023-05-05T07:27:49.465Z,1681.88
2023-05-05T07:28:49.403Z,1614.38
2023-05-05T07:29:49.341Z,1563.75
2023-05-05T07:30:49.394Z,1541.25
2023-05-05T07:31:49.388Z,1591.88
2023-05-05T07:33:49.351Z,1597.50
2023-05-05T07:35:49.290Z,1586.25
2023-05-05T07:36:49.303Z,1591.88
2023-05-05T07:38:49.287Z,1732.50
2023-05-05T07:39:49.245Z,1805.62
2023-05-05T07:40:49.264Z,1800.00
2023-05-05T07:41:49.272Z,1732.50
2023-05-05T07:42:49.234Z,1693.12
2023-05-05T07:43:49.199Z,1665.00
2023-05-05T07:45:49.256Z,1659.38
2023-05-05T07:46:49.280Z,1698.75
2023-05-05T07:47:49.214Z,1749.38
2023-05-05T07:48:49.154Z,1732.50
2023-05-05T07:49:52.149Z,1681.88
2023-05-05T07:51:49.136Z,1710.00
2023-05-05T07:52:53.956Z,1811.25
2023-05-05T07:53:50.100Z,1906.88
2023-05-05T07:54:49.086Z,1895.62
2023-05-05T07:56:49.103Z,1946.25
2023-05-05T07:57:49.219Z,1890.00
2023-05-05T07:58:49.047Z,1890.00
2023-05-05T07:59:49.033Z,1918.12
2023-05-05T08:01:49.040Z,2086.88
2023-05-05T08:03:49.075Z,2086.88
2023-05-05T08:04:52.002Z,2086.88
2023-05-05T08:05:51.235Z,1996.88
2023-05-05T08:06:48.954Z,1923.75
2023-05-05T08:07:48.980Z,1918.12
2023-05-05T08:08:48.946Z,2008.12
2023-05-05T08:09:48.924Z,2126.25
2023-05-05T08:10:48.945Z,2272.50
2023-05-05T08:11:48.948Z,2193.75
2023-05-05T08:12:48.955Z,2030.62
2023-05-05T08:13:48.977Z,1974.38
2023-05-05T08:14:48.883Z,1963.12
2023-05-05T08:15:48.923Z,2036.25
2023-05-05T08:16:48.884Z,2064.38
2023-05-05T08:18:48.849Z,2036.25
2023-05-05T08:19:51.855Z,2086.88
2023-05-05T08:20:48.853Z,2182.50
2023-05-05T08:21:48.799Z,2295.00
2023-05-05T08:22:48.826Z,2306.25
2023-05-05T08:23:48.808Z,2407.50
2023-05-05T08:24:48.806Z,2115.00
2023-05-05T08:26:48.765Z,2300.62
2023-05-05T08:27:48.782Z,2317.50
2023-05-05T08:28:48.774Z,2210.62
2023-05-05T08:30:48.711Z,2070.00
2023-05-05T08:31:48.783Z,2086.88
2023-05-05T08:32:48.758Z,2216.25
2023-05-05T08:33:48.716Z,2205.00
2023-05-05T08:34:51.672Z,2205.00
2023-05-05T08:36:48.676Z,2266.88
2023-05-05T08:37:48.641Z,2340.00
2023-05-05T08:38:48.756Z,2401.88
2023-05-05T08:39:48.663Z,2458.12
2023-05-05T08:40:48.616Z,2413.12
2023-05-05T08:41:48.596Z,2475.00
2023-05-05T08:42:48.622Z,2514.38
2023-05-05T08:44:48.565Z,2373.75
2023-05-05T08:45:48.549Z,2300.62
2023-05-05T08:46:48.659Z,2261.25
2023-05-05T08:47:48.595Z,2233.12
2023-05-05T08:48:48.651Z,2435.62
2023-05-05T08:49:51.508Z,2418.75
2023-05-05T08:51:48.496Z,2418.75
2023-05-05T08:52:50.655Z,2396.25
2023-05-05T08:53:48.474Z,2390.62
2023-05-05T08:54:48.501Z,2373.75
2023-05-05T08:56:48.466Z,2497.50
2023-05-05T08:57:48.468Z,2548.12
2023-05-05T08:59:48.407Z,2716.88
2023-05-05T09:00:48.486Z,2823.75
2023-05-05T09:02:48.472Z,2565.00
2023-05-05T09:04:51.415Z,2621.25
2023-05-05T09:05:48.339Z,2587.50
2023-05-05T09:06:48.335Z,2565.00
2023-05-05T09:07:48.344Z,2553.75
2023-05-05T09:08:48.302Z,2615.62
2023-05-05T09:09:48.282Z,2598.75
2023-05-05T09:10:48.307Z,2632.50
2023-05-05T09:12:48.339Z,2615.62
2023-05-05T09:13:48.273Z,2587.50
2023-05-05T09:14:48.271Z,2643.75
2023-05-05T09:16:48.340Z,2548.12
2023-05-05T09:17:48.384Z,2317.50
2023-05-05T09:18:48.195Z,1951.88
2023-05-05T09:19:51.215Z,2092.50
2023-05-05T09:20:48.270Z,2002.50
2023-05-05T09:21:48.196Z,2491.88
2023-05-05T09:22:48.183Z,2593.12
2023-05-05T09:23:48.156Z,2801.25
2023-05-05T09:24:48.129Z,2784.38
2023-05-05T09:25:48.132Z,2683.12
2023-05-05T09:26:48.155Z,2626.88
2023-05-05T09:27:48.148Z,2733.75
2023-05-05T09:29:48.106Z,2756.25
2023-05-05T09:30:48.102Z,2491.88
2023-05-05T09:32:48.144Z,2413.12
2023-05-05T09:33:48.066Z,2520.00
2023-05-05T09:34:51.054Z,2581.88
2023-05-05T09:35:48.056Z,2475.00
2023-05-05T09:36:48.084Z,2767.50
2023-05-05T09:37:48.086Z,2784.38
2023-05-05T09:39:47.970Z,2576.25
2023-05-05T09:40:47.989Z,2604.38
2023-05-05T09:41:48.002Z,2593.12
2023-05-05T09:42:47.949Z,2598.75
2023-05-05T09:43:47.966Z,2812.50
2023-05-05T09:44:47.950Z,2857.50
2023-05-05T09:45:47.938Z,2846.25
2023-05-05T09:46:48.040Z,2801.25
2023-05-05T09:47:48.076Z,2902.50
2023-05-05T09:48:49.028Z,2958.75
2023-05-05T09:49:51.151Z,2750.62
2023-05-05T09:50:47.917Z,2660.62
2023-05-05T09:51:47.857Z,2671.88
2023-05-05T09:52:48.156Z,2823.75
2023-05-05T09:53:47.853Z,2964.38
2023-05-05T09:54:47.902Z,3088.12
2023-05-05T09:55:47.867Z,2998.12
2023-05-05T09:57:47.778Z,2795.62
2023-05-05T09:58:47.807Z,2992.50
2023-05-05T09:59:47.754Z,2874.38
2023-05-05T10:00:47.880Z,3037.50
2023-05-05T10:02:47.778Z,3245.62
2023-05-05T10:03:47.740Z,3088.12
2023-05-05T10:04:50.815Z,2655.00
2023-05-05T10:05:47.730Z,2233.12
2023-05-05T10:06:47.760Z,2581.88
2023-05-05T10:08:47.666Z,3054.38
2023-05-05T10:09:47.683Z,3245.62
2023-05-05T10:10:47.670Z,3200.62
2023-05-05T10:11:47.666Z,3138.75
2023-05-05T10:12:47.705Z,3138.75
2023-05-05T10:13:47.631Z,3093.75
2023-05-05T10:15:47.622Z,2829.38
2023-05-05T10:16:47.722Z,3026.25
2023-05-05T10:17:57.938Z,3082.50
2023-05-05T10:18:47.558Z,3223.12
2023-05-05T10:19:50.596Z,3138.75
2023-05-05T10:20:47.581Z,3060.00
2023-05-05T10:21:47.560Z,2919.38
2023-05-05T10:22:47.535Z,2694.38
2023-05-05T10:23:47.546Z,2655.00
2023-05-05T10:24:47.496Z,2649.38
2023-05-05T10:25:47.507Z,2716.88
2023-05-05T10:26:47.480Z,2868.75
2023-05-05T10:27:47.460Z,3009.38
2023-05-05T10:28:47.495Z,2840.62
2023-05-05T10:29:47.474Z,2716.88
2023-05-05T10:30:47.446Z,2626.88
2023-05-05T10:31:47.486Z,2660.62
2023-05-05T10:33:48.562Z,2930.62
2023-05-05T10:34:50.420Z,2863.12
2023-05-05T10:35:47.390Z,2739.38
2023-05-05T10:36:47.397Z,2683.12
2023-05-05T10:37:47.357Z,2694.38
2023-05-05T10:38:47.371Z,2531.25
2023-05-05T10:39:47.336Z,2643.75
2023-05-05T10:41:47.332Z,2941.88
2023-05-05T10:42:47.338Z,2970.00
2023-05-05T10:43:47.336Z,3082.50
2023-05-05T10:44:47.333Z,3043.12
2023-05-05T10:45:47.358Z,2958.75
2023-05-05T10:46:47.269Z,2756.25
2023-05-05T10:47:47.404Z,2610.00
2023-05-05T10:48:47.331Z,2581.88
2023-05-05T10:49:50.293Z,2626.88
2023-05-05T10:51:47.206Z,2491.88
2023-05-05T10:52:47.210Z,2559.38
2023-05-05T10:53:47.207Z,2463.75
2023-05-05T10:54:47.179Z,2328.75
2023-05-05T10:55:47.199Z,2216.25
2023-05-05T10:56:47.211Z,2176.88
2023-05-05T10:57:47.166Z,2070.00
2023-05-05T10:58:59.227Z,2368.12
2023-05-05T10:59:47.119Z,2548.12
2023-05-05T11:00:47.274Z,2536.88
2023-05-05T11:01:47.097Z,2666.25
2023-05-05T11:02:47.206Z,2705.62
2023-05-05T11:03:47.157Z,2806.88
2023-05-05T11:04:50.067Z,2570.62
2023-05-05T11:06:47.074Z,2925.00
2023-05-05T11:07:47.130Z,2986.88
2023-05-05T11:08:47.067Z,2773.12
2023-05-05T11:09:47.018Z,2795.62
2023-05-05T11:11:47.048Z,3121.88
2023-05-05T11:12:47.068Z,3178.12
2023-05-05T11:13:46.988Z,3195.00
2023-05-05T11:14:46.993Z,3071.25
2023-05-05T11:16:47.004Z,2913.75
2023-05-05T11:17:47.036Z,2896.88
2023-05-05T11:19:49.911Z,2981.25
2023-05-05T11:21:46.924Z,2958.75
2023-05-05T11:22:47.030Z,2857.50
2023-05-05T11:23:46.911Z,2604.38
2023-05-05T11:24:46.880Z,2418.75
2023-05-05T11:25:46.887Z,2491.88
2023-05-05T11:26:46.856Z,2508.75
2023-05-05T11:27:46.956Z,2559.38
2023-05-05T11:28:46.823Z,2486.25
2023-05-05T11:29:46.840Z,2610.00
2023-05-05T11:30:46.853Z,2632.50
2023-05-05T11:31:46.817Z,2936.25
2023-05-05T11:33:46.771Z,2587.50
2023-05-05T11:34:49.752Z,2784.38
2023-05-05T11:36:46.731Z,3228.75
2023-05-05T11:37:46.749Z,3127.50
2023-05-05T11:38:46.751Z,2829.38
2023-05-05T11:39:46.750Z,3026.25
2023-05-05T11:40:46.762Z,3245.62
2023-05-05T11:41:46.693Z,3425.62
2023-05-05T11:42:46.702Z,3330.00
2023-05-05T11:44:46.680Z,3240.00
2023-05-05T11:45:46.639Z,3256.88
2023-05-05T11:46:46.658Z,3256.88
2023-05-05T11:47:46.857Z,3217.50
2023-05-05T11:48:46.603Z,3206.25
2023-05-05T11:49:49.633Z,3442.50
2023-05-05T11:50:46.610Z,3538.12
2023-05-05T11:51:46.627Z,3549.38
2023-05-05T11:52:46.601Z,3521.25
2023-05-05T11:54:46.548Z,3358.12
2023-05-05T11:55:46.566Z,3560.62
2023-05-05T11:56:46.515Z,3577.50
2023-05-05T11:57:46.521Z,3915.00
2023-05-05T11:59:49.031Z,3386.25
2023-05-05T12:00:46.505Z,3611.25
2023-05-05T12:01:46.509Z,3560.62
2023-05-05T12:02:46.567Z,3301.88
2023-05-05T12:03:46.633Z,3082.50
2023-05-05T12:04:49.605Z,2362.50
2023-05-05T12:05:46.469Z,1946.25
2023-05-05T12:06:46.425Z,2598.75
2023-05-05T12:07:46.430Z,3110.62
2023-05-05T12:08:46.401Z,2930.62
2023-05-05T12:09:46.398Z,3279.38
2023-05-05T12:11:46.366Z,3105.00
2023-05-05T12:12:46.402Z,2649.38
2023-05-05T12:13:46.340Z,2621.25
2023-05-05T12:14:46.367Z,2430.00
2023-05-05T12:15:46.354Z,2193.75
2023-05-05T12:17:46.419Z,1833.75
2023-05-05T12:18:46.453Z,1518.75
2023-05-05T12:19:49.298Z,1423.12
2023-05-05T12:20:46.308Z,1378.12
2023-05-05T12:21:46.266Z,1355.62
2023-05-05T12:22:46.283Z,1361.25
2023-05-05T12:23:46.844Z,1389.38
2023-05-05T12:24:46.236Z,1440.00
2023-05-05T12:25:46.225Z,1535.62
2023-05-05T12:26:46.229Z,1614.38
2023-05-05T12:27:46.231Z,1648.12
2023-05-05T12:28:46.192Z,1620.00
2023-05-05T12:29:46.184Z,1552.50
2023-05-05T12:30:46.240Z,1518.75
2023-05-05T12:31:46.186Z,1490.62
2023-05-05T12:32:46.221Z,1445.62
2023-05-05T12:33:46.175Z,1428.75
2023-05-05T12:34:49.166Z,1383.75
2023-05-05T12:35:46.118Z,1372.50
2023-05-05T12:36:46.185Z,1462.50
2023-05-05T12:37:46.167Z,1957.50
2023-05-05T12:38:46.107Z,1479.38
2023-05-05T12:40:46.073Z,1355.62
2023-05-05T12:41:46.094Z,1366.88
2023-05-05T12:42:46.470Z,2520.00
2023-05-05T12:43:46.068Z,1513.12
2023-05-05T12:44:46.044Z,1636.88
2023-05-05T12:45:46.039Z,1738.12
2023-05-05T12:46:46.054Z,1805.62
2023-05-05T12:47:46.063Z,2688.75
2023-05-05T12:48:48.286Z,2548.12
2023-05-05T12:49:48.974Z,2553.75
2023-05-05T12:50:45.969Z,1794.38
2023-05-05T12:52:45.950Z,2165.62
2023-05-05T12:53:46.009Z,2998.12
2023-05-05T12:55:45.958Z,1935.00
2023-05-05T12:56:46.026Z,1951.88
2023-05-05T12:57:45.928Z,1996.88
2023-05-05T12:58:45.917Z,2739.38
2023-05-05T13:00:45.922Z,3465.00
2023-05-05T13:01:45.859Z,3217.50
2023-05-05T13:02:45.939Z,3082.50
2023-05-05T13:03:45.851Z,1918.12
2023-05-05T13:04:48.889Z,1659.38
2023-05-05T13:05:45.853Z,1625.62
2023-05-05T13:07:45.863Z,3386.25
2023-05-05T13:09:45.801Z,3358.12
2023-05-05T13:10:45.765Z,3386.25
2023-05-05T13:11:45.758Z,3335.62
2023-05-05T13:12:45.900Z,1974.38
2023-05-05T13:13:45.721Z,3071.25
2023-05-05T13:14:45.747Z,2846.25
2023-05-05T13:15:45.776Z,3144.38
2023-05-05T13:17:45.777Z,3240.00
2023-05-05T13:18:45.676Z,3245.62
2023-05-05T13:19:48.690Z,3251.25
2023-05-05T13:20:45.703Z,3436.88
2023-05-05T13:22:45.669Z,3780.00
2023-05-05T13:23:45.695Z,3706.88
2023-05-05T13:24:52.332Z,3223.12
2023-05-05T13:25:45.639Z,3408.75
2023-05-05T13:27:45.613Z,3105.00
2023-05-05T13:28:45.599Z,3346.88
2023-05-05T13:29:45.559Z,3324.38
2023-05-05T13:30:45.570Z,3403.12
2023-05-05T13:31:45.586Z,3183.75
2023-05-05T13:32:45.624Z,3166.88
2023-05-05T13:33:45.548Z,3003.75
2023-05-05T13:34:48.543Z,3138.75
2023-05-05T13:35:45.522Z,3088.12
2023-05-05T13:36:45.485Z,3200.62
2023-05-05T13:37:45.489Z,3060.00
2023-05-05T13:38:45.461Z,3043.12
2023-05-05T13:39:45.491Z,3031.88
2023-05-05T13:40:45.471Z,1867.50
2023-05-05T13:42:45.459Z,3273.75
2023-05-05T13:43:45.443Z,3279.38
2023-05-05T13:44:45.401Z,3240.00
2023-05-05T13:45:45.516Z,1653.75
2023-05-05T13:46:45.395Z,1715.62